EST,Max TemperatureF,Mean TemperatureF,Min TemperatureF,Max Dew PointF,MeanDew PointF,Min DewpointF,Max Humidity, Mean Humidity, Min Humidity, Max Sea Level PressureIn, Mean Sea Level PressureIn, Min Sea Level PressureIn, Max VisibilityMiles, Mean VisibilityMiles, Min VisibilityMiles, Max Wind SpeedMPH, Mean Wind SpeedMPH, Max Gust SpeedMPH,PrecipitationIn, CloudCover, Events, WindDirDegrees
2014-2-1,39,32,26,37,28,21,100,87,60,30.12,29.97,29.82,10,9,1,13,6,18,0.18,7,,179
2014-2-2,39,29,19,37,25,16,100,92,80,30.14,29.99,29.83,10,6,2,12,7,,0.05,8,,299
2014-2-3,21,16,10,16,13,7,93,85,68,30.29,30.18,30.09,10,9,5,9,5,,0.00,7,,346
2014-2-4,21,14,8,19,12,3,100,85,68,30.37,30.27,30.08,10,9,1,13,2,,0.01,3,,55
2014-2-5,21,18,12,19,16,10,93,88,79,30.14,29.85,29.61,10,3,0,16,10,23,0.08,8,,27
2014-2-6,17,9,1,12,6,-4,100,80,63,30.25,30.18,30.12,10,8,2,17,7,21,0.00,7,,254
2014-2-7,12,6,0,7,-4,-8,92,65,45,30.21,30.18,30.13,10,9,3,21,11,29,0.00,4,,235
2014-2-8,15,6,-2,7,-1,-11,92,71,53,30.21,30.15,30.08,10,10,3,10,6,,0.00,3,,227
2014-2-9,19,12,6,16,8,3,93,84,79,30.08,29.97,29.84,10,5,0,15,4,18,0.03,8,,220
2014-2-10,15,10,5,10,5,0,92,81,62,30.21,30.11,30.02,10,6,1,15,7,,0.00,7,,264
2014-2-11,10,6,1,5,1,-2,92,76,62,30.37,30.30,30.20,10,8,2,12,4,16,0.00,6,,312
2014-2-12,26,10,-5,5,-1,-18,100,63,34,30.36,30.21,30.05,10,10,10,15,5,22,0.00,0,,170
2014-2-13,28,20,12,21,11,0,86,73,57,30.05,29.76,29.47,10,10,10,12,7,,0.00,3,,42
2014-2-14,24,20,15,21,17,12,93,84,74,29.67,29.51,29.38,10,6,2,20,7,26,0.00,7,,242
2014-2-15,21,14,8,18,11,1,93,81,63,29.95,29.80,29.66,10,6,1,14,7,21,0.00,8,,296
2014-2-16,15,8,1,12,5,-2,92,85,73,30.19,29.97,29.89,10,7,1,13,5,17,0.00,6,,293
2014-2-17,28,13,-2,12,0,-9,100,58,31,30.33,30.14,29.74,10,10,2,26,6,37,0.00,2,,147
2014-2-18,28,24,21,25,19,14,93,81,69,29.96,29.83,29.67,10,6,1,24,15,34,0.01,6,,208
2014-2-19,44,36,28,36,27,21,93,72,52,30.06,29.77,29.60,10,9,1,22,11,31,0.00,4,,223
2014-2-20,42,34,26,37,29,23,100,88,52,30.09,29.92,29.66,10,6,0,14,7,20,0.41,6,,151
2014-2-21,46,40,32,45,31,14,100,75,48,29.80,29.65,29.53,10,9,1,28,12,37,0.42,6,,209
2014-2-22,39,34,30,28,19,12,87,53,33,29.95,29.87,29.77,10,10,3,30,15,43,0.00,5,,232
2014-2-23,35,28,21,28,19,7,93,67,40,29.96,29.92,29.89,10,10,3,18,11,25,0.00,3,,246
2014-2-24,21,18,15,14,9,3,86,71,53,30.02,29.96,29.89,10,5,1,24,15,34,0.00,8,,270
2014-2-25,17,14,10,12,6,1,86,74,53,30.00,29.94,29.80,10,6,1,15,8,20,0.00,7,,268
2014-2-26,15,9,3,12,-3,-9,86,65,44,29.93,29.81,29.60,10,6,1,22,12,28,0.00,6,,260
2014-2-27,12,5,-2,9,-3,-11,85,70,56,30.04,29.68,29.43,10,6,0,24,12,34,0.00,6,,259
2014-2-28,15,3,-9,-6,-10,-20,100,55,32,30.25,30.15,30.04,10,10,10,9,4,,0.00,0,,180